Time;durP1;ratioP1;P1;durP2;ratioP2;P2;SDS_P1;SDS_P2;PMS_P1;PMS_P2;Temp;Humidity;BMP_temperature;BMP_pressure;BME280_temperature;BME280_humidity;BME280_pressure;Samples;Min_cycle;Max_cycle;Signal;HPM_P1;HPM_P2
2023/03/29 00:01:50;;;;;;;3.08;0.90;;;;;;;;;;5032221;28;20052;-68
2023/03/29 00:04:18;;;;;;;2.53;1.17;;;;;;;;;;5030105;28;20033;-68
2023/03/29 00:06:46;;;;;;;2.30;1.20;;;;;;;;;;5032912;28;20103;-68
2023/03/29 00:09:13;;;;;;;4.15;1.30;;;;;;;;;;5031236;28;20030;-67
2023/03/29 00:11:39;;;;;;;4.18;1.80;;;;;;;;;;5032942;28;20052;-68
2023/03/29 00:14:05;;;;;;;4.85;1.42;;;;;;;;;;5033292;28;20014;-68
2023/03/29 00:16:30;;;;;;;2.65;1.40;;;;;;;;;;5032940;28;20091;-68
2023/03/29 00:18:57;;;;;;;2.85;1.40;;;;;;;;;;5032998;28;20047;-69
2023/03/29 00:21:22;;;;;;;2.53;1.10;;;;;;;;;;5033963;28;20567;-69
2023/03/29 00:23:48;;;;;;;1.73;1.00;;;;;;;;;;5032924;28;20105;-69
2023/03/29 00:26:14;;;;;;;1.88;1.08;;;;;;;;;;5032811;28;20033;-69
2023/03/29 00:28:39;;;;;;;2.33;1.15;;;;;;;;;;5032697;28;20087;-69
2023/03/29 00:31:11;;;;;;;1.73;0.90;;;;;;;;;;5030860;28;20041;-69
2023/03/29 00:33:37;;;;;;;2.25;1.02;;;;;;;;;;5029277;28;20034;-69
2023/03/29 00:36:04;;;;;;;2.17;1.10;;;;;;;;;;5030958;28;20025;-68
2023/03/29 00:38:30;;;;;;;2.42;0.82;;;;;;;;;;5031213;28;20043;-68
2023/03/29 00:40:56;;;;;;;2.05;1.02;;;;;;;;;;5027438;28;20028;-68
2023/03/29 00:43:22;;;;;;;2.15;1.02;;;;;;;;;;5028407;28;20513;-68
2023/03/29 00:45:48;;;;;;;0.88;0.70;;;;;;;;;;5031186;28;20022;-67
2023/03/29 00:48:23;;;;;;;1.42;0.70;;;;;;;;;;5032594;28;20115;-67
2023/03/29 00:51:00;;;;;;;2.28;0.80;;;;;;;;;;5035546;28;20029;-68
2023/03/29 00:53:32;;;;;;;2.00;0.82;;;;;;;;;;5031152;28;20033;-68
2023/03/29 00:56:06;;;;;;;2.92;1.25;;;;;;;;;;5030961;28;20148;-68
2023/03/29 00:58:57;;;;;;;3.47;1.13;;;;;;;;;;5030960;28;20503;-68
2023/03/29 01:01:49;;;;;;;1.40;0.80;;;;;;;;;;5030448;28;20075;-68
2023/03/29 01:04:21;;;;;;;1.80;0.90;;;;;;;;;;5031635;28;20041;-67
2023/03/29 01:07:16;;;;;;;2.60;0.85;;;;;;;;;;5034227;28;20527;-67
2023/03/29 01:09:46;;;;;;;1.60;0.90;;;;;;;;;;5032689;28;20053;-69
2023/03/29 01:12:16;;;;;;;2.70;1.00;;;;;;;;;;5031503;28;20037;-67
2023/03/29 01:14:57;;;;;;;2.05;1.08;;;;;;;;;;5030890;28;20091;-68
2023/03/29 01:17:24;;;;;;;2.22;0.90;;;;;;;;;;5030541;28;20091;-68
2023/03/29 01:19:58;;;;;;;1.83;0.90;;;;;;;;;;5035147;28;20423;-67
2023/03/29 01:22:37;;;;;;;2.03;1.00;;;;;;;;;;5010972;28;20029;-68
2023/03/29 01:25:20;;;;;;;1.02;0.70;;;;;;;;;;5012279;28;20084;-68
2023/03/29 01:28:10;;;;;;;1.58;0.82;;;;;;;;;;5014090;28;20138;-67
2023/03/29 01:30:49;;;;;;;2.60;1.13;;;;;;;;;;5026464;28;20088;-68
2023/03/29 01:33:24;;;;;;;3.28;1.20;;;;;;;;;;5030344;28;20025;-68
2023/03/29 01:36:00;;;;;;;1.60;1.00;;;;;;;;;;5024814;28;20037;-67
2023/03/29 01:38:57;;;;;;;2.03;1.10;;;;;;;;;;5029900;28;20037;-68
2023/03/29 01:41:34;;;;;;;2.53;0.95;;;;;;;;;;5030628;28;20419;-68
2023/03/29 01:44:33;;;;;;;1.92;1.00;;;;;;;;;;5030092;28;20507;-68
2023/03/29 01:47:27;;;;;;;9.57;1.30;;;;;;;;;;5035541;28;20063;-68
2023/03/29 01:50:22;;;;;;;1.77;0.80;;;;;;;;;;5034971;28;20040;-67
2023/03/29 01:52:55;;;;;;;2.95;0.88;;;;;;;;;;5029905;28;20053;-69
2023/03/29 01:55:30;;;;;;;0.93;0.70;;;;;;;;;;5030089;28;20037;-68
2023/03/29 01:57:58;;;;;;;3.28;0.90;;;;;;;;;;5029973;28;20041;-68
2023/03/29 02:00:28;;;;;;;1.30;0.85;;;;;;;;;;5029474;28;20025;-68
2023/03/29 02:02:59;;;;;;;2.30;1.20;;;;;;;;;;5030194;28;20064;-67
2023/03/29 02:05:27;;;;;;;2.10;0.98;;;;;;;;;;5029239;28;20479;-68
2023/03/29 02:07:59;;;;;;;1.52;0.80;;;;;;;;;;5029874;28;20048;-68
2023/03/29 02:10:26;;;;;;;2.30;1.20;;;;;;;;;;5029385;28;20041;-67
2023/03/29 02:12:51;;;;;;;3.60;1.23;;;;;;;;;;5029892;28;20079;-68
2023/03/29 02:15:19;;;;;;;1.55;0.90;;;;;;;;;;5031191;28;20037;-68
2023/03/29 02:17:46;;;;;;;1.92;0.90;;;;;;;;;;5029576;28;20040;-67
2023/03/29 02:20:21;;;;;;;2.45;0.80;;;;;;;;;;5030324;28;20490;-68
2023/03/29 02:22:53;;;;;;;6.78;1.27;;;;;;;;;;5010120;28;20033;-68
2023/03/29 02:25:18;;;;;;;3.10;1.30;;;;;;;;;;5010273;28;20507;-68
2023/03/29 02:27:45;;;;;;;4.13;1.33;;;;;;;;;;5029773;28;20035;-68
2023/03/29 02:30:12;;;;;;;4.28;1.42;;;;;;;;;;5029315;28;20120;-68
2023/03/29 02:32:38;;;;;;;3.90;1.10;;;;;;;;;;5029599;28;20443;-68
2023/03/29 02:35:12;;;;;;;3.83;1.30;;;;;;;;;;5029800;28;20033;-68
2023/03/29 02:37:44;;;;;;;3.88;1.33;;;;;;;;;;5030878;28;20304;-68
2023/03/29 02:40:11;;;;;;;2.22;1.10;;;;;;;;;;5029366;28;20030;-68
2023/03/29 02:42:40;;;;;;;4.13;1.20;;;;;;;;;;5029444;28;20025;-68
2023/03/29 02:45:08;;;;;;;3.67;1.20;;;;;;;;;;5029658;28;20037;-67
2023/03/29 02:47:40;;;;;;;2.75;1.33;;;;;;;;;;5029472;28;20116;-68
2023/03/29 02:50:07;;;;;;;4.03;1.20;;;;;;;;;;5033246;28;20035;-68
2023/03/29 02:52:38;;;;;;;4.95;1.42;;;;;;;;;;5030028;28;20445;-68
2023/03/29 02:55:08;;;;;;;3.25;1.30;;;;;;;;;;5034736;28;20476;-68
2023/03/29 02:57:37;;;;;;;9.30;1.85;;;;;;;;;;5032847;28;20099;-67
2023/03/29 03:00:05;;;;;;;2.67;1.65;;;;;;;;;;5032853;28;20029;-68
2023/03/29 03:02:32;;;;;;;2.25;1.25;;;;;;;;;;5034070;28;20031;-68
2023/03/29 03:04:58;;;;;;;5.07;1.40;;;;;;;;;;5032859;28;20028;-68
2023/03/29 03:07:24;;;;;;;1.90;1.20;;;;;;;;;;5034202;28;20041;-68
2023/03/29 03:09:50;;;;;;;2.47;1.42;;;;;;;;;;5032516;28;20029;-68
2023/03/29 03:12:16;;;;;;;4.53;1.70;;;;;;;;;;5033293;28;20044;-68
2023/03/29 03:14:42;;;;;;;5.35;1.38;;;;;;;;;;5034484;28;20415;-68
2023/03/29 03:17:07;;;;;;;5.40;2.22;;;;;;;;;;5032677;28;20466;-68
2023/03/29 03:19:33;;;;;;;2.78;1.55;;;;;;;;;;5032022;28;20029;-68
2023/03/29 03:21:59;;;;;;;2.95;1.30;;;;;;;;;;5031702;28;20068;-68
2023/03/29 03:24:26;;;;;;;2.63;1.55;;;;;;;;;;5030695;28;20029;-68
2023/03/29 03:26:53;;;;;;;3.03;1.30;;;;;;;;;;5032436;28;20118;-68
2023/03/29 03:29:19;;;;;;;8.88;1.70;;;;;;;;;;5032168;28;20479;-68
2023/03/29 03:32:17;;;;;;;2.83;1.33;;;;;;;;;;5019926;28;20399;-68
2023/03/29 03:35:03;;;;;;;4.50;1.65;;;;;;;;;;5026985;28;20056;-67
2023/03/29 03:37:29;;;;;;;4.15;1.90;;;;;;;;;;5030095;28;20037;-67
2023/03/29 03:39:55;;;;;;;3.90;1.80;;;;;;;;;;5032026;28;20581;-68
2023/03/29 03:42:22;;;;;;;2.38;1.30;;;;;;;;;;5032139;28;20025;-68
2023/03/29 03:44:48;;;;;;;3.33;1.67;;;;;;;;;;5033592;28;20024;-68
2023/03/29 03:47:41;;;;;;;3.28;1.20;;;;;;;;;;5019777;28;20045;-68
2023/03/29 03:50:31;;;;;;;2.38;1.20;;;;;;;;;;5030014;28;20033;-70
2023/03/29 03:52:57;;;;;;;4.82;1.50;;;;;;;;;;5014997;28;20037;-68
2023/03/29 03:55:31;;;;;;;2.80;1.50;;;;;;;;;;5033073;28;20029;-68
2023/03/29 03:58:20;;;;;;;4.40;2.10;;;;;;;;;;5029838;28;20407;-68
2023/03/29 04:00:50;;;;;;;6.03;2.60;;;;;;;;;;5031192;28;20041;-68
2023/03/29 04:03:32;;;;;;;7.63;2.88;;;;;;;;;;5029101;28;20487;-68
2023/03/29 04:06:01;;;;;;;5.18;2.55;;;;;;;;;;5029024;28;20131;-68
2023/03/29 04:08:37;;;;;;;6.55;2.22;;;;;;;;;;5027562;28;20105;-68
2023/03/29 04:11:21;;;;;;;3.65;1.75;;;;;;;;;;5027774;28;20172;-71
2023/03/29 04:13:49;;;;;;;4.13;1.65;;;;;;;;;;5030659;28;20095;-68
2023/03/29 04:16:37;;;;;;;3.45;1.90;;;;;;;;;;5026334;28;20041;-68
2023/03/29 04:19:23;;;;;;;2.45;1.48;;;;;;;;;;5030665;28;20291;-70
2023/03/29 04:21:50;;;;;;;3.10;1.40;;;;;;;;;;5014869;28;20040;-70
2023/03/29 04:24:16;;;;;;;5.15;1.88;;;;;;;;;;5031153;28;20033;-69
2023/03/29 04:26:49;;;;;;;3.90;1.83;;;;;;;;;;5031273;28;20040;-69
2023/03/29 04:29:20;;;;;;;3.75;1.75;;;;;;;;;;5030103;28;20120;-70
2023/03/29 04:31:53;;;;;;;3.95;1.80;;;;;;;;;;5025265;28;20036;-69
2023/03/29 04:34:54;;;;;;;8.68;1.85;;;;;;;;;;5029031;28;20064;-69
2023/03/29 04:37:21;;;;;;;3.97;1.90;;;;;;;;;;5028263;28;20492;-70
2023/03/29 04:39:51;;;;;;;7.43;2.67;;;;;;;;;;5030817;28;20494;-69
2023/03/29 04:42:18;;;;;;;3.63;1.70;;;;;;;;;;5027180;28;20443;-68
2023/03/29 04:44:45;;;;;;;3.03;1.70;;;;;;;;;;5030246;28;20571;-70
2023/03/29 04:47:13;;;;;;;2.58;1.25;;;;;;;;;;5030299;28;20383;-70
2023/03/29 04:49:56;;;;;;;4.70;1.13;;;;;;;;;;5027759;28;20036;-70
2023/03/29 04:52:38;;;;;;;4.55;1.38;;;;;;;;;;5029500;28;20041;-70
2023/03/29 04:55:06;;;;;;;3.08;1.60;;;;;;;;;;5030469;28;20091;-70
2023/03/29 04:58:04;;;;;;;2.75;1.60;;;;;;;;;;5019316;28;20021;-70
2023/03/29 05:00:33;;;;;;;5.47;2.00;;;;;;;;;;5030484;28;20107;-69
2023/03/29 05:02:59;;;;;;;3.17;1.42;;;;;;;;;;5027423;28;20044;-69
2023/03/29 05:05:27;;;;;;;5.28;2.00;;;;;;;;;;5029014;28;20051;-70
2023/03/29 05:07:53;;;;;;;3.38;1.50;;;;;;;;;;5013675;28;20029;-70
2023/03/29 05:10:24;;;;;;;2.13;1.20;;;;;;;;;;5030067;28;20033;-69
2023/03/29 05:12:52;;;;;;;4.00;1.80;;;;;;;;;;5029182;28;20552;-70
2023/03/29 05:15:20;;;;;;;4.10;1.85;;;;;;;;;;5029816;28;20070;-69
2023/03/29 05:17:47;;;;;;;2.67;1.45;;;;;;;;;;5013422;28;20087;-70
2023/03/29 05:20:15;;;;;;;5.80;1.92;;;;;;;;;;5029577;28;20032;-69
2023/03/29 05:22:43;;;;;;;4.45;1.33;;;;;;;;;;5029831;28;20029;-70
2023/03/29 05:25:18;;;;;;;3.97;1.50;;;;;;;;;;5029736;28;20033;-70
2023/03/29 05:27:44;;;;;;;2.50;1.17;;;;;;;;;;5030041;28;20037;-70
2023/03/29 05:30:14;;;;;;;3.38;1.30;;;;;;;;;;5029856;28;20025;-69
2023/03/29 05:32:48;;;;;;;5.15;2.22;;;;;;;;;;5029851;28;20430;-69
2023/03/29 05:35:17;;;;;;;7.28;1.80;;;;;;;;;;5030537;28;20033;-70
2023/03/29 05:37:46;;;;;;;2.90;1.30;;;;;;;;;;5030452;28;20021;-70
2023/03/29 05:40:12;;;;;;;3.53;1.50;;;;;;;;;;5029761;28;20179;-68
2023/03/29 05:43:03;;;;;;;5.53;2.17;;;;;;;;;;5029524;28;20033;-70
2023/03/29 05:45:32;;;;;;;6.18;1.75;;;;;;;;;;5029690;28;20515;-70
2023/03/29 05:47:57;;;;;;;5.47;1.65;;;;;;;;;;5029577;28;20091;-69
2023/03/29 05:50:23;;;;;;;2.58;1.40;;;;;;;;;;5029131;28;20476;-68
2023/03/29 05:52:49;;;;;;;3.55;1.40;;;;;;;;;;5029671;28;20045;-69
2023/03/29 05:55:17;;;;;;;3.30;1.92;;;;;;;;;;5029414;28;20119;-70
2023/03/29 05:57:43;;;;;;;3.63;1.60;;;;;;;;;;5029916;28;20025;-69
2023/03/29 06:00:21;;;;;;;4.32;1.60;;;;;;;;;;5029933;28;20121;-71
2023/03/29 06:02:51;;;;;;;6.55;1.80;;;;;;;;;;5031142;28;20033;-69
2023/03/29 06:05:18;;;;;;;8.73;2.08;;;;;;;;;;5013287;28;20044;-69
2023/03/29 06:08:04;;;;;;;4.80;2.10;;;;;;;;;;5029364;28;20380;-70
2023/03/29 06:10:59;;;;;;;5.60;1.83;;;;;;;;;;5030612;28;20029;-69
2023/03/29 06:13:45;;;;;;;4.28;1.60;;;;;;;;;;5029589;28;20052;-70
2023/03/29 06:16:12;;;;;;;5.03;1.67;;;;;;;;;;5030672;28;20030;-69
2023/03/29 06:18:39;;;;;;;12.50;2.58;;;;;;;;;;5030814;28;20053;-69
2023/03/29 06:21:06;;;;;;;4.03;1.75;;;;;;;;;;5028637;28;20437;-69
2023/03/29 06:23:32;;;;;;;6.82;1.70;;;;;;;;;;5028636;28;20392;-69
2023/03/29 06:25:58;;;;;;;4.47;1.98;;;;;;;;;;5028755;28;20033;-69
2023/03/29 06:28:25;;;;;;;5.63;2.50;;;;;;;;;;5030953;28;20395;-69
2023/03/29 06:30:55;;;;;;;3.28;1.10;;;;;;;;;;5032902;28;20045;-68
2023/03/29 06:33:24;;;;;;;4.93;1.30;;;;;;;;;;5017157;28;20073;-68
2023/03/29 06:36:12;;;;;;;3.65;1.40;;;;;;;;;;5033988;28;20076;-70
2023/03/29 06:38:38;;;;;;;5.72;1.90;;;;;;;;;;5032849;28;20136;-69
2023/03/29 06:41:27;;;;;;;3.00;1.40;;;;;;;;;;5023187;28;20041;-69
2023/03/29 06:43:56;;;;;;;4.05;1.60;;;;;;;;;;5034560;28;20037;-69
2023/03/29 06:46:29;;;;;;;7.38;1.80;;;;;;;;;;5032671;28;20025;-69
2023/03/29 06:48:59;;;;;;;5.80;1.70;;;;;;;;;;5032977;28;20037;-69
2023/03/29 06:51:33;;;;;;;6.22;2.13;;;;;;;;;;5033166;28;20068;-68
2023/03/29 06:53:59;;;;;;;3.88;1.20;;;;;;;;;;5032607;28;20033;-67
2023/03/29 06:56:25;;;;;;;4.90;1.35;;;;;;;;;;5032746;28;20064;-71
2023/03/29 06:58:57;;;;;;;5.60;1.27;;;;;;;;;;5032584;28;20061;-69
2023/03/29 07:01:42;;;;;;;7.63;1.60;;;;;;;;;;5032644;28;20033;-69
2023/03/29 07:04:17;;;;;;;2.38;0.80;;;;;;;;;;5032660;28;20471;-68
2023/03/29 07:07:02;;;;;;;3.60;1.15;;;;;;;;;;5034189;28;20056;-68
2023/03/29 07:09:32;;;;;;;13.23;2.03;;;;;;;;;;5032152;28;20033;-68
2023/03/29 07:12:37;;;;;;;1.20;0.80;;;;;;;;;;5011837;28;20116;-68
2023/03/29 07:15:03;;;;;;;5.13;1.77;;;;;;;;;;5011576;28;20136;-69
2023/03/29 07:17:49;;;;;;;3.10;1.20;;;;;;;;;;5024901;28;20037;-69
2023/03/29 07:20:15;;;;;;;5.10;1.38;;;;;;;;;;5031929;28;20142;-69
2023/03/29 07:22:47;;;;;;;8.27;1.35;;;;;;;;;;5032096;28;20561;-69
2023/03/29 07:25:16;;;;;;;9.35;1.33;;;;;;;;;;5032625;28;20602;-69
2023/03/29 07:27:42;;;;;;;3.42;1.30;;;;;;;;;;5033409;28;20037;-68
2023/03/29 07:30:10;;;;;;;5.78;2.00;;;;;;;;;;5033597;28;20029;-69
2023/03/29 07:32:40;;;;;;;3.75;1.50;;;;;;;;;;5031736;28;20034;-68
2023/03/29 07:35:31;;;;;;;3.90;1.30;;;;;;;;;;5032277;28;20037;-68
2023/03/29 07:37:58;;;;;;;3.08;0.90;;;;;;;;;;5031997;28;20037;-69
2023/03/29 07:40:25;;;;;;;2.38;1.00;;;;;;;;;;5030936;28;20132;-69
2023/03/29 07:42:57;;;;;;;5.45;1.23;;;;;;;;;;5033011;28;20045;-69
2023/03/29 07:45:27;;;;;;;3.42;1.27;;;;;;;;;;5031534;28;20129;-69
2023/03/29 07:48:00;;;;;;;1.75;0.90;;;;;;;;;;5032007;28;20027;-69
2023/03/29 07:50:38;;;;;;;3.08;1.00;;;;;;;;;;5031466;28;20068;-68
2023/03/29 07:53:05;;;;;;;2.55;1.13;;;;;;;;;;5031342;28;20053;-67
2023/03/29 07:55:32;;;;;;;5.18;1.90;;;;;;;;;;5031202;28;20025;-68
2023/03/29 07:58:07;;;;;;;4.63;1.23;;;;;;;;;;5031007;28;20513;-68
2023/03/29 08:00:35;;;;;;;2.55;0.95;;;;;;;;;;5031184;28;20120;-68
2023/03/29 08:03:21;;;;;;;2.70;1.23;;;;;;;;;;5031537;28;20032;-69
2023/03/29 08:05:47;;;;;;;4.07;1.77;;;;;;;;;;5031283;28;20172;-68
2023/03/29 08:08:14;;;;;;;5.25;1.48;;;;;;;;;;5031418;28;20395;-69
2023/03/29 08:10:52;;;;;;;1.00;0.90;;;;;;;;;;5031302;28;20040;-68
2023/03/29 08:13:31;;;;;;;17.98;2.88;;;;;;;;;;5031328;28;20079;-69
2023/03/29 08:16:29;;;;;;;3.10;0.90;;;;;;;;;;5025941;28;20069;-68
2023/03/29 08:19:03;;;;;;;4.75;1.10;;;;;;;;;;5028318;28;20057;-69
2023/03/29 08:21:46;;;;;;;1.95;1.35;;;;;;;;;;5009705;28;20083;-68
2023/03/29 08:24:13;;;;;;;2.63;1.10;;;;;;;;;;5030477;28;20171;-67
2023/03/29 08:26:47;;;;;;;1.73;1.00;;;;;;;;;;5031836;28;20045;-68
2023/03/29 08:29:16;;;;;;;2.83;1.20;;;;;;;;;;5028455;28;20499;-67
2023/03/29 08:31:42;;;;;;;3.05;1.08;;;;;;;;;;5028987;28;20479;-68
2023/03/29 08:34:09;;;;;;;3.33;1.45;;;;;;;;;;5028845;28;20025;-68
2023/03/29 08:36:43;;;;;;;2.67;1.27;;;;;;;;;;5031419;28;20018;-68
2023/03/29 08:39:18;;;;;;;2.92;1.27;;;;;;;;;;5026421;28;20033;-68
2023/03/29 08:42:33;;;;;;;3.60;1.17;;;;;;;;;;5022379;28;20041;-68
2023/03/29 08:45:19;;;;;;;4.90;1.17;;;;;;;;;;5024134;28;20518;-67
2023/03/29 08:48:03;;;;;;;2.20;1.17;;;;;;;;;;5021918;28;20033;-68
2023/03/29 08:50:35;;;;;;;2.92;1.13;;;;;;;;;;5028823;28;20041;-69
2023/03/29 08:53:07;;;;;;;1.83;1.10;;;;;;;;;;5030041;28;20124;-68
2023/03/29 08:56:03;;;;;;;2.88;1.10;;;;;;;;;;5017985;28;20034;-67
2023/03/29 08:58:51;;;;;;;4.32;1.38;;;;;;;;;;5013553;28;20045;-68
2023/03/29 09:01:19;;;;;;;3.10;1.05;;;;;;;;;;5027192;28;20530;-69
2023/03/29 09:03:57;;;;;;;4.65;1.17;;;;;;;;;;5005772;28;20079;-68
2023/03/29 09:06:34;;;;;;;6.97;2.10;;;;;;;;;;5029558;28;20029;-68
2023/03/29 09:09:16;;;;;;;9.60;2.33;;;;;;;;;;5029430;28;20488;-68
2023/03/29 09:11:55;;;;;;;4.45;1.90;;;;;;;;;;5013286;28;20033;-68
2023/03/29 09:14:47;;;;;;;3.00;1.30;;;;;;;;;;5027601;28;20021;-68
2023/03/29 09:17:30;;;;;;;1.88;1.00;;;;;;;;;;5029403;28;20079;-69
2023/03/29 09:20:34;;;;;;;1.70;1.00;;;;;;;;;;5024963;28;20136;-68
2023/03/29 09:23:24;;;;;;;4.43;1.10;;;;;;;;;;5044763;28;20037;-68
2023/03/29 09:26:14;;;;;;;6.03;1.58;;;;;;;;;;5025833;28;20127;-69
2023/03/29 09:29:39;;;;;;;4.57;1.27;;;;;;;;;;5028598;28;20252;-68
2023/03/29 09:32:18;;;;;;;6.95;1.30;;;;;;;;;;5027223;28;20033;-69
2023/03/29 09:35:20;;;;;;;8.23;2.78;;;;;;;;;;5027164;28;20120;-70
2023/03/29 09:37:49;;;;;;;4.55;1.40;;;;;;;;;;5018494;28;20499;-70
2023/03/29 09:40:21;;;;;;;4.38;1.42;;;;;;;;;;5028517;28;20088;-69
2023/03/29 09:43:03;;;;;;;2.33;1.10;;;;;;;;;;5025092;28;20487;-69
2023/03/29 09:45:30;;;;;;;4.80;1.50;;;;;;;;;;5024056;28;20038;-69
2023/03/29 09:48:01;;;;;;;4.95;1.10;;;;;;;;;;5020536;28;20459;-69
2023/03/29 09:50:37;;;;;;;5.30;1.60;;;;;;;;;;5028836;28;20068;-70
2023/03/29 09:53:07;;;;;;;2.88;1.05;;;;;;;;;;5030632;28;20398;-69
2023/03/29 09:55:39;;;;;;;1.98;1.02;;;;;;;;;;5029066;28;20045;-70
2023/03/29 09:58:31;;;;;;;1.77;1.00;;;;;;;;;;5029112;28;20088;-71
2023/03/29 10:01:04;;;;;;;1.15;0.80;;;;;;;;;;5031508;28;20033;-70
2023/03/29 10:03:33;;;;;;;2.17;1.00;;;;;;;;;;5032930;28;20038;-70
2023/03/29 10:06:11;;;;;;;2.60;1.20;;;;;;;;;;5032648;28;20473;-70
2023/03/29 10:09:13;;;;;;;1.55;1.00;;;;;;;;;;5031806;28;20065;-70
2023/03/29 10:11:46;;;;;;;2.33;1.20;;;;;;;;;;5030741;28;20514;-69
2023/03/29 10:14:19;;;;;;;3.55;1.67;;;;;;;;;;5046478;28;20029;-69
2023/03/29 10:16:46;;;;;;;1.90;0.90;;;;;;;;;;5033431;28;20030;-69
2023/03/29 10:19:27;;;;;;;3.58;1.35;;;;;;;;;;5028147;28;20017;-69
2023/03/29 10:21:54;;;;;;;2.30;1.30;;;;;;;;;;5030491;28;20053;-69
2023/03/29 10:24:22;;;;;;;6.07;1.45;;;;;;;;;;5034537;28;20112;-68
2023/03/29 10:26:56;;;;;;;4.25;1.33;;;;;;;;;;5030566;28;20049;-69
2023/03/29 10:29:24;;;;;;;2.78;1.80;;;;;;;;;;5034348;28;20480;-71
2023/03/29 10:31:50;;;;;;;2.35;1.33;;;;;;;;;;5026530;28;20147;-70
2023/03/29 10:34:16;;;;;;;2.38;0.90;;;;;;;;;;5034881;28;20037;-70
2023/03/29 10:36:47;;;;;;;1.50;0.98;;;;;;;;;;5028767;28;20025;-70
2023/03/29 10:39:15;;;;;;;1.92;1.10;;;;;;;;;;5029031;28;20038;-71
2023/03/29 10:41:42;;;;;;;2.03;1.20;;;;;;;;;;5025901;28;20029;-70
2023/03/29 10:44:26;;;;;;;6.57;1.67;;;;;;;;;;5033700;28;20037;-71
2023/03/29 10:46:52;;;;;;;3.40;1.35;;;;;;;;;;5032399;28;20075;-70
2023/03/29 10:49:20;;;;;;;2.67;1.10;;;;;;;;;;5033706;28;20029;-70
2023/03/29 10:51:48;;;;;;;2.38;1.08;;;;;;;;;;5031046;28;20037;-69
2023/03/29 10:54:20;;;;;;;2.55;1.00;;;;;;;;;;5034335;28;20467;-69
2023/03/29 10:56:59;;;;;;;3.40;1.40;;;;;;;;;;5030841;28;20033;-69
2023/03/29 10:59:28;;;;;;;3.70;1.38;;;;;;;;;;5033575;28;20044;-69
2023/03/29 11:02:12;;;;;;;2.40;1.20;;;;;;;;;;5032236;28;20025;-70
2023/03/29 11:04:44;;;;;;;2.45;1.48;;;;;;;;;;5031757;28;20120;-69
2023/03/29 11:07:30;;;;;;;2.65;1.15;;;;;;;;;;5030082;28;20037;-69
2023/03/29 11:10:18;;;;;;;3.42;1.42;;;;;;;;;;5032888;28;20042;-69
2023/03/29 11:13:08;;;;;;;3.67;1.30;;;;;;;;;;5034088;28;20060;-70
2023/03/29 11:15:44;;;;;;;2.47;1.30;;;;;;;;;;5033973;28;20061;-70
2023/03/29 11:18:22;;;;;;;4.13;1.90;;;;;;;;;;5032050;28;20375;-70
2023/03/29 11:20:59;;;;;;;5.28;1.90;;;;;;;;;;5028677;28;20031;-70
2023/03/29 11:24:01;;;;;;;4.15;1.60;;;;;;;;;;5027754;28;20502;-69
2023/03/29 11:26:40;;;;;;;3.45;1.60;;;;;;;;;;5034256;28;20079;-68
2023/03/29 11:29:12;;;;;;;2.35;1.25;;;;;;;;;;5027789;28;20049;-71
2023/03/29 11:31:49;;;;;;;1.67;0.77;;;;;;;;;;5031332;28;20172;-69
2023/03/29 11:34:36;;;;;;;2.05;1.20;;;;;;;;;;5032602;28;20022;-69
2023/03/29 11:37:14;;;;;;;3.47;1.00;;;;;;;;;;5031840;28;20129;-69
2023/03/29 11:39:48;;;;;;;1.65;0.98;;;;;;;;;;5028413;28;20036;-71
2023/03/29 11:42:23;;;;;;;3.35;1.20;;;;;;;;;;5031233;28;20034;-69
2023/03/29 11:44:52;;;;;;;2.10;1.02;;;;;;;;;;5028151;28;20029;-70
2023/03/29 11:47:26;;;;;;;1.98;0.98;;;;;;;;;;5030292;28;20029;-69
2023/03/29 11:49:58;;;;;;;2.05;1.02;;;;;;;;;;5031012;28;20036;-69
2023/03/29 11:52:35;;;;;;;3.08;1.40;;;;;;;;;;5030309;28;20037;-70
2023/03/29 11:55:07;;;;;;;4.38;1.58;;;;;;;;;;5032389;28;20037;-69
2023/03/29 11:57:35;;;;;;;3.40;1.40;;;;;;;;;;5030543;28;20124;-69
2023/03/29 12:00:11;;;;;;;5.70;1.63;;;;;;;;;;5030547;28;20121;-69
2023/03/29 12:02:42;;;;;;;2.13;1.10;;;;;;;;;;5030650;28;20037;-69
2023/03/29 12:05:21;;;;;;;2.42;1.13;;;;;;;;;;5031572;28;20041;-70
2023/03/29 12:08:03;;;;;;;2.30;1.00;;;;;;;;;;5031716;28;20060;-69
2023/03/29 12:11:08;;;;;;;3.45;1.30;;;;;;;;;;5029588;28;20079;-71
2023/03/29 12:13:43;;;;;;;2.35;1.08;;;;;;;;;;5030651;28;20049;-71
2023/03/29 12:16:18;;;;;;;4.55;1.75;;;;;;;;;;5031519;28;20048;-69
2023/03/29 12:18:47;;;;;;;1.73;0.90;;;;;;;;;;5030288;28;20323;-70
2023/03/29 12:21:20;;;;;;;1.55;0.98;;;;;;;;;;5031243;28;20033;-69
2023/03/29 12:23:47;;;;;;;2.38;1.27;;;;;;;;;;5028552;28;20026;-70
2023/03/29 12:26:50;;;;;;;1.60;1.02;;;;;;;;;;5031385;28;20506;-71
2023/03/29 12:30:03;;;;;;;4.18;2.53;;;;;;;;;;5031140;28;20033;-70
2023/03/29 12:32:50;;;;;;;2.55;1.42;;;;;;;;;;5028074;28;20047;-70
2023/03/29 12:36:46;;;;;;;3.75;1.38;;;;;;;;;;5028618;28;20035;-70
2023/03/29 12:39:32;;;;;;;4.75;1.60;;;;;;;;;;5027234;28;20112;-71
2023/03/29 12:42:20;;;;;;;2.15;1.05;;;;;;;;;;5032570;28;20049;-71
2023/03/29 12:45:05;;;;;;;2.53;1.27;;;;;;;;;;5030851;28;20052;-69
2023/03/29 12:47:41;;;;;;;2.65;0.95;;;;;;;;;;5031356;28;20072;-70
2023/03/29 12:50:23;;;;;;;4.10;2.25;;;;;;;;;;5025221;28;20033;-70
2023/03/29 12:52:49;;;;;;;4.35;1.40;;;;;;;;;;5031365;28;20506;-68
2023/03/29 12:55:22;;;;;;;3.80;1.30;;;;;;;;;;5026960;28;20022;-70
2023/03/29 12:58:09;;;;;;;2.25;1.20;;;;;;;;;;5026250;28;20033;-70
2023/03/29 13:00:35;;;;;;;0.93;0.75;;;;;;;;;;5030505;28;20056;-71
2023/03/29 13:03:21;;;;;;;2.80;1.50;;;;;;;;;;5023302;28;20029;-71
2023/03/29 13:06:01;;;;;;;2.03;0.88;;;;;;;;;;5032507;28;20056;-70
2023/03/29 13:08:56;;;;;;;1.25;0.82;;;;;;;;;;5029456;28;20340;-71
2023/03/29 13:11:33;;;;;;;1.67;0.90;;;;;;;;;;5024850;28;20040;-71
2023/03/29 13:14:18;;;;;;;3.25;0.85;;;;;;;;;;5026975;28;20083;-71
2023/03/29 13:16:44;;;;;;;3.85;1.70;;;;;;;;;;5026454;28;20496;-70
2023/03/29 13:19:34;;;;;;;4.40;2.45;;;;;;;;;;5028369;28;20075;-70
2023/03/29 13:22:09;;;;;;;3.42;1.90;;;;;;;;;;5030496;28;20035;-71
2023/03/29 13:24:43;;;;;;;1.98;0.80;;;;;;;;;;5030019;28;20096;-71
2023/03/29 13:27:41;;;;;;;4.35;1.58;;;;;;;;;;5030384;28;20109;-70
2023/03/29 13:30:18;;;;;;;3.50;1.77;;;;;;;;;;5029490;28;20410;-71
2023/03/29 13:33:07;;;;;;;3.78;2.00;;;;;;;;;;5028337;28;20511;-70
2023/03/29 13:35:45;;;;;;;2.55;1.10;;;;;;;;;;5029287;28;20053;-70
2023/03/29 13:38:17;;;;;;;5.88;1.85;;;;;;;;;;5025610;28;20047;-71
2023/03/29 13:40:55;;;;;;;2.30;1.10;;;;;;;;;;5030841;28;20288;-71
2023/03/29 13:43:32;;;;;;;2.45;0.90;;;;;;;;;;5029441;28;20336;-71
2023/03/29 13:45:58;;;;;;;5.25;1.35;;;;;;;;;;5022669;28;20045;-72
2023/03/29 13:48:30;;;;;;;5.43;1.13;;;;;;;;;;5027828;28;20049;-72
2023/03/29 13:50:59;;;;;;;2.90;1.63;;;;;;;;;;5057679;28;20085;-72
2023/03/29 13:53:34;;;;;;;4.70;1.00;;;;;;;;;;5057980;28;20264;-71
2023/03/29 13:56:00;;;;;;;4.43;1.00;;;;;;;;;;5058671;28;20117;-71
2023/03/29 13:58:40;;;;;;;6.20;1.20;;;;;;;;;;5060137;28;20120;-72
2023/03/29 14:01:22;;;;;;;7.55;1.00;;;;;;;;;;5050062;28;20045;-70
2023/03/29 14:03:51;;;;;;;3.35;0.90;;;;;;;;;;5053703;28;20041;-72
2023/03/29 14:06:26;;;;;;;2.10;0.93;;;;;;;;;;5057342;28;20032;-71
2023/03/29 14:08:53;;;;;;;2.10;1.30;;;;;;;;;;5064460;28;20094;-72
2023/03/29 14:11:28;;;;;;;2.75;1.10;;;;;;;;;;5054944;28;20021;-71
2023/03/29 14:13:56;;;;;;;5.88;1.38;;;;;;;;;;5058578;28;20025;-71
2023/03/29 14:16:25;;;;;;;2.92;0.95;;;;;;;;;;5057955;28;20066;-71
2023/03/29 14:18:51;;;;;;;4.47;1.25;;;;;;;;;;5060780;28;20032;-71
2023/03/29 14:21:19;;;;;;;3.72;1.60;;;;;;;;;;5058302;28;20029;-72
2023/03/29 14:23:52;;;;;;;4.32;1.60;;;;;;;;;;5060919;28;20105;-71
2023/03/29 14:26:23;;;;;;;4.30;1.23;;;;;;;;;;5061898;28;20461;-72
2023/03/29 14:28:55;;;;;;;3.50;1.20;;;;;;;;;;5060459;28;20032;-70
2023/03/29 14:31:24;;;;;;;5.55;2.00;;;;;;;;;;5048222;28;20059;-71
2023/03/29 14:33:59;;;;;;;4.45;1.40;;;;;;;;;;5043714;28;20030;-70
2023/03/29 14:36:27;;;;;;;3.13;1.60;;;;;;;;;;5041896;28;20037;-70
2023/03/29 14:39:00;;;;;;;5.43;2.53;;;;;;;;;;5045113;28;20045;-70
2023/03/29 14:41:31;;;;;;;5.50;2.97;;;;;;;;;;5037685;28;20544;-71
2023/03/29 14:43:58;;;;;;;4.20;1.63;;;;;;;;;;5046518;28;20065;-70
2023/03/29 14:46:24;;;;;;;4.60;1.60;;;;;;;;;;5042370;28;20394;-70
2023/03/29 14:48:51;;;;;;;4.75;1.98;;;;;;;;;;5045885;28;20040;-71
2023/03/29 14:51:17;;;;;;;3.08;1.20;;;;;;;;;;5055930;28;20458;-71
2023/03/29 14:53:43;;;;;;;1.90;1.08;;;;;;;;;;5060382;28;20027;-71
2023/03/29 14:56:16;;;;;;;3.38;1.30;;;;;;;;;;5059833;28;20628;-70
2023/03/29 14:58:45;;;;;;;3.00;1.05;;;;;;;;;;5057842;28;20057;-70
2023/03/29 15:01:21;;;;;;;2.85;1.50;;;;;;;;;;5058603;28;20028;-70
2023/03/29 15:04:06;;;;;;;4.35;1.50;;;;;;;;;;5049881;28;20069;-69
2023/03/29 15:06:38;;;;;;;3.10;1.70;;;;;;;;;;5059882;28;20051;-71
2023/03/29 15:09:04;;;;;;;4.50;1.50;;;;;;;;;;5052147;28;20033;-70
2023/03/29 15:11:30;;;;;;;2.95;1.40;;;;;;;;;;5047246;28;20025;-70
2023/03/29 15:14:15;;;;;;;4.45;1.80;;;;;;;;;;5063244;28;20021;-70
2023/03/29 15:16:45;;;;;;;5.55;2.10;;;;;;;;;;5053174;28;20391;-71
2023/03/29 15:19:24;;;;;;;5.13;2.15;;;;;;;;;;5063190;28;20032;-71
2023/03/29 15:21:51;;;;;;;5.32;1.40;;;;;;;;;;5057177;28;20037;-72
2023/03/29 15:24:27;;;;;;;5.00;1.10;;;;;;;;;;5063833;28;20032;-70
2023/03/29 15:27:10;;;;;;;3.03;1.33;;;;;;;;;;5062456;28;20379;-70
2023/03/29 15:29:41;;;;;;;2.27;1.17;;;;;;;;;;5052428;28;20028;-71